Irvine, Florida
Current Conditions -  °F | °C
As of 9:35 PM on Saturday 22 Nov 2014 (Local Time) from KOCF Reporting Station
Broken Clouds Broken Clouds  
Wind Chill: 66°   Ceiling: 11000
Heat Index: 66°   Visibility: 10mi
Dew Point: 63°   Wind: 5mph
Humidity: 88%   Direction: 80°E
Pressure: 30.14"   Gusts: NA
Location:  29.3919°N, 82.2811°W
Report Text: KOCF 230235Z AUTO 08004KT 10SM BKN110 19/17 A3014 RMK AO1
Loading
Personal Weather Stations






























Interactive Weather Map New forecast layout! Learn more

10-Day Weather Forecast

Advertisements
Track Severe Weather on mobile